Terminal Aerodrome Forecast
Issued by NWS

Home | Current Version | Previous Version | Text Only | Print | Product List | Glossary On
Versions: 1 2 3 4 5 6 7 8 9 10 11 12 13 14 15 16 17 18
607
FTUS41 KGYX 232151 AAA
TAFRKD
TAF AMD
KRKD 232151Z 2322/2418 26009KT P6SM SCT050
      TEMPO 2322/2323 5SM SHRA BR OVC040
     FM240000 31004KT P6SM SCT200
     FM240800 32002KT 1/2SM FG FEW004
     FM241100 VRB05KT P6SM SKC
      AMD LTD TO CLD VIS AND WIND=

USA.gov is the U.S. government's official web portal to all federal, state and local government web resources and services.